Kt Birdie — 3FUJ7 — position and weather

sailwx.info

Track history (hours):
 
Tides and Currents Weather Stations Pressure Air Temp Water Temp Dewpoint Dewpoint Depression Visibility Wind Speed Wind Dir Waves Ship Positions

Kt Birdie

Last reported at 2014-Sep-01 19:32 UTC. Time now 2014-Sep-18 19:45 UTC.
Position S 26°26' E 154°07'.
Warning: this ship's position is 17 days out of date.

Length 225 m; draft 14 m.

Type: Cargo ship. MMSI: 354803000.

Date/timePositionNaut miles runAvg speedWind from/ knotsBaromVisibWave heightAir tempDewpointWater temp
2014-Sep-01 19:32S 26°26' E 154°07'10 9.9
2014-Sep-01 18:33S 26°35' E 154°07'10 9.9
2014-Sep-01 17:33S 26°45' E 154°07'1110.0
2014-Sep-01 16:29S 26°56' E 154°07'1010.1
2014-Sep-01 15:28S 27°06' E 154°07'1510.4
2014-Sep-01 14:04S 27°21' E 154°07'8 9.9
2014-Sep-01 13:18S 27°28' E 154°07'16 9.2
2014-Sep-01 11:33S 27°45' E 154°07'20 9.0
2014-Sep-01 09:19S 28°05' E 154°07'27610.3
2014-Aug-31 06:32S 32°32' E 152°45'1010.0
2014-Aug-31 05:33S 32°39' E 152°37'1110.7
2014-Aug-31 04:33S 32°46' E 152°28'1110.7
2014-Aug-31 03:33S 32°53' E 152°19'1010.3
2014-Aug-31 02:33S 32°56' E 152°07'1010.5
2014-Aug-31 01:33S 32°56' E 151°54'6 6.2
2014-Aug-31 00:33S 32°55' E 151°47'2 2.1
2014-Aug-30 23:29S 32°53' E 151°46'0 0.0
2014-Aug-30 22:29S 32°53' E 151°46'0 0.0
2014-Aug-30 21:32S 32°53' E 151°46'0 0.0
2014-Aug-30 20:32S 32°53' E 151°46'0 0.0
2014-Aug-30 18:29S 32°53' E 151°46'0 0.0
2014-Aug-30 17:32S 32°53' E 151°46'0 0.0
2014-Aug-30 16:23S 32°53' E 151°46'0 0.0
2014-Aug-30 15:29S 32°53' E 151°46'0 0.0
2014-Aug-30 14:29S 32°53' E 151°46'0 0.0
2014-Aug-30 13:29S 32°53' E 151°46'0 0.0
2014-Aug-30 12:29S 32°53' E 151°46'0 0.0
2014-Aug-30 11:26S 32°53' E 151°46'0 0.0
2014-Aug-30 10:32S 32°53' E 151°46'0 0.0
2014-Aug-30 09:32S 32°53' E 151°46'0 0.0
2014-Aug-30 08:29S 32°53' E 151°46'0 0.0
2014-Aug-30 07:32S 32°53' E 151°46'0 0.0
2014-Aug-30 06:29S 32°53' E 151°46'0 0.0
2014-Aug-30 05:29S 32°53' E 151°46'0 0.0
2014-Aug-30 04:29S 32°53' E 151°46'0 0.4
2014-Aug-30 03:33S 32°54' E 151°46'7 6.5
2014-Aug-30 02:33S 32°58' E 151°52'9 9.4
2014-Aug-30 01:33S 33°04' E 152°00'4 4.5
2014-Aug-30 00:33S 32°60' E 152°02'2 2.5
2014-Aug-29 23:33S 32°60' E 152°05'3 2.6
2014-Aug-29 22:33S 33°02' E 152°06'3 2.9
2014-Aug-29 21:33S 32°60' E 152°09'5 5.2
2014-Aug-29 20:33S 32°56' E 152°13'2 2.2
2014-Aug-29 19:33S 32°58' E 152°12'3 2.5
2014-Aug-29 18:33S 33°01' E 152°11'3 2.5
2014-Aug-29 17:33S 33°03' E 152°10'3 2.5
2014-Aug-29 16:34S 33°05' E 152°08'3 2.6
2014-Aug-29 15:33S 33°08' E 152°07'4 4.1
2014-Aug-29 14:33S 33°08' E 152°02'4 4.3
2014-Aug-29 13:33S 33°11' E 151°59'3 3.3
2014-Aug-29 12:33S 33°08' E 151°58'2 2.2
2014-Aug-29 11:33S 33°06' E 152°01'2 1.6
2014-Aug-29 10:33S 33°06' E 152°02'1 0.7
2014-Aug-29 09:33S 33°06' E 152°03'3 3.3
2014-Aug-29 08:33S 33°02' E 152°02'3 3.4
2014-Aug-29 07:33S 32°60' E 151°60'3 2.6
2014-Aug-29 06:33S 33°02' E 151°60'4 3.6
2014-Aug-29 05:33S 33°02' E 151°55'5 4.4
2014-Aug-29 04:26S 33°00' E 151°50'8 0.1
2014-Aug-27 00:33S 33°08' E 151°51'1211.6
2014-Aug-26 23:33S 33°01' E 152°02'7 6.5
2014-Aug-26 22:33S 32°57' E 152°09'2 2.1
2014-Aug-26 21:33S 32°59' E 152°11'2 1.9
2014-Aug-26 20:34S 33°00' E 152°12'8 8.2
2014-Aug-26 19:33S 33°03' E 152°03'2 2.4
2014-Aug-26 18:33S 33°05' E 152°03'2 2.1
2014-Aug-26 17:33S 33°06' E 152°05'4 4.5
2014-Aug-26 16:33S 33°10' E 152°03'9 8.9
2014-Aug-26 15:32S 33°16' E 151°54'4 0.8
2014-Aug-26 10:31S 33°15' E 151°59'3 2.7
2014-Aug-26 09:32S 33°14' E 152°02'3 2.4
2014-Aug-26 08:17S 33°13' E 152°05'2 2.1
2014-Aug-26 07:31S 33°13' E 152°07'2 2.0
2014-Aug-26 06:31S 33°11' E 152°09'2 2.0
2014-Aug-26 05:24S 33°12' E 152°06'5 5.9
2014-Aug-26 04:33S 33°13' E 152°00'5 1.0
2014-Aug-25 23:21S 33°09' E 151°58'3 4.1
2014-Aug-25 22:33S 33°05' E 151°58'9 9.0
2014-Aug-25 21:33S 32°57' E 152°01'1313.1
2014-Aug-25 20:33S 32°55' E 152°16'1312.8
2014-Aug-25 19:33S 32°46' E 152°28'1413.8
2014-Aug-25 18:33S 32°37' E 152°40'33511.2
2014-Aug-24 12:33S 27°11' E 154°06'1010.3
2014-Aug-24 11:33S 27°00' E 154°06'  
Track history (hours):
 
Tides and Currents Weather Stations Pressure Air Temp Water Temp Dewpoint Dewpoint Depression Visibility Wind Speed Wind Dir Waves Ship Positions

Kt Birdie

Last reported at 2014-Sep-01 19:32 UTC. Time now 2014-Sep-18 19:45 UTC.
Position S 26°26' E 154°07'.
Warning: this ship's position is 17 days out of date.

Length 225 m; draft 14 m.

Type: Cargo ship. MMSI: 354803000.

Date/timePositionNaut miles runAvg speedWind from/ knotsBaromVisibWave heightAir tempDewpointWater temp
2014-Sep-01 19:32S 26°26' E 154°07'10 9.9
2014-Sep-01 18:33S 26°35' E 154°07'10 9.9
2014-Sep-01 17:33S 26°45' E 154°07'1110.0
2014-Sep-01 16:29S 26°56' E 154°07'1010.1
2014-Sep-01 15:28S 27°06' E 154°07'1510.4
2014-Sep-01 14:04S 27°21' E 154°07'8 9.9
2014-Sep-01 13:18S 27°28' E 154°07'16 9.2
2014-Sep-01 11:33S 27°45' E 154°07'20 9.0
2014-Sep-01 09:19S 28°05' E 154°07'27610.3
2014-Aug-31 06:32S 32°32' E 152°45'1010.0
2014-Aug-31 05:33S 32°39' E 152°37'1110.7
2014-Aug-31 04:33S 32°46' E 152°28'1110.7
2014-Aug-31 03:33S 32°53' E 152°19'1010.3
2014-Aug-31 02:33S 32°56' E 152°07'1010.5
2014-Aug-31 01:33S 32°56' E 151°54'6 6.2
2014-Aug-31 00:33S 32°55' E 151°47'2 2.1
2014-Aug-30 23:29S 32°53' E 151°46'0 0.0
2014-Aug-30 22:29S 32°53' E 151°46'0 0.0
2014-Aug-30 21:32S 32°53' E 151°46'0 0.0
2014-Aug-30 20:32S 32°53' E 151°46'0 0.0
2014-Aug-30 18:29S 32°53' E 151°46'0 0.0
2014-Aug-30 17:32S 32°53' E 151°46'0 0.0
2014-Aug-30 16:23S 32°53' E 151°46'0 0.0
2014-Aug-30 15:29S 32°53' E 151°46'0 0.0
2014-Aug-30 14:29S 32°53' E 151°46'0 0.0
2014-Aug-30 13:29S 32°53' E 151°46'0 0.0
2014-Aug-30 12:29S 32°53' E 151°46'0 0.0
2014-Aug-30 11:26S 32°53' E 151°46'0 0.0
2014-Aug-30 10:32S 32°53' E 151°46'0 0.0
2014-Aug-30 09:32S 32°53' E 151°46'0 0.0
2014-Aug-30 08:29S 32°53' E 151°46'0 0.0
2014-Aug-30 07:32S 32°53' E 151°46'0 0.0
2014-Aug-30 06:29S 32°53' E 151°46'0 0.0
2014-Aug-30 05:29S 32°53' E 151°46'0 0.0
2014-Aug-30 04:29S 32°53' E 151°46'0 0.4
2014-Aug-30 03:33S 32°54' E 151°46'7 6.5
2014-Aug-30 02:33S 32°58' E 151°52'9 9.4
2014-Aug-30 01:33S 33°04' E 152°00'4 4.5
2014-Aug-30 00:33S 32°60' E 152°02'2 2.5
2014-Aug-29 23:33S 32°60' E 152°05'3 2.6
2014-Aug-29 22:33S 33°02' E 152°06'3 2.9
2014-Aug-29 21:33S 32°60' E 152°09'5 5.2
2014-Aug-29 20:33S 32°56' E 152°13'2 2.2
2014-Aug-29 19:33S 32°58' E 152°12'3 2.5
2014-Aug-29 18:33S 33°01' E 152°11'3 2.5
2014-Aug-29 17:33S 33°03' E 152°10'3 2.5
2014-Aug-29 16:34S 33°05' E 152°08'3 2.6
2014-Aug-29 15:33S 33°08' E 152°07'4 4.1
2014-Aug-29 14:33S 33°08' E 152°02'4 4.3
2014-Aug-29 13:33S 33°11' E 151°59'3 3.3
2014-Aug-29 12:33S 33°08' E 151°58'2 2.2
2014-Aug-29 11:33S 33°06' E 152°01'2 1.6
2014-Aug-29 10:33S 33°06' E 152°02'1 0.7
2014-Aug-29 09:33S 33°06' E 152°03'3 3.3
2014-Aug-29 08:33S 33°02' E 152°02'3 3.4
2014-Aug-29 07:33S 32°60' E 151°60'3 2.6
2014-Aug-29 06:33S 33°02' E 151°60'4 3.6
2014-Aug-29 05:33S 33°02' E 151°55'5 4.4
2014-Aug-29 04:26S 33°00' E 151°50'8 0.1
2014-Aug-27 00:33S 33°08' E 151°51'1211.6
2014-Aug-26 23:33S 33°01' E 152°02'7 6.5
2014-Aug-26 22:33S 32°57' E 152°09'2 2.1
2014-Aug-26 21:33S 32°59' E 152°11'2 1.9
2014-Aug-26 20:34S 33°00' E 152°12'8 8.2
2014-Aug-26 19:33S 33°03' E 152°03'2 2.4
2014-Aug-26 18:33S 33°05' E 152°03'2 2.1
2014-Aug-26 17:33S 33°06' E 152°05'4 4.5
2014-Aug-26 16:33S 33°10' E 152°03'9 8.9
2014-Aug-26 15:32S 33°16' E 151°54'4 0.8
2014-Aug-26 10:31S 33°15' E 151°59'3 2.7
2014-Aug-26 09:32S 33°14' E 152°02'3 2.4
2014-Aug-26 08:17S 33°13' E 152°05'2 2.1
2014-Aug-26 07:31S 33°13' E 152°07'2 2.0
2014-Aug-26 06:31S 33°11' E 152°09'2 2.0
2014-Aug-26 05:24S 33°12' E 152°06'5 5.9
2014-Aug-26 04:33S 33°13' E 152°00'5 1.0
2014-Aug-25 23:21S 33°09' E 151°58'3 4.1
2014-Aug-25 22:33S 33°05' E 151°58'9 9.0
2014-Aug-25 21:33S 32°57' E 152°01'1313.1
2014-Aug-25 20:33S 32°55' E 152°16'1312.8
2014-Aug-25 19:33S 32°46' E 152°28'1413.8
2014-Aug-25 18:33S 32°37' E 152°40'33511.2
2014-Aug-24 12:33S 27°11' E 154°06'1010.3
2014-Aug-24 11:33S 27°00' E 154°06'  

Dump ship's entire track history